sensor_id;sensor_type;location;lat;lon;timestamp;temperature;humidity
2867;DHT22;1441;48.886;8.728;2023-08-06T00:00:14;15.00;99.90
2867;DHT22;1441;48.886;8.728;2023-08-06T00:02:39;15.20;99.90
2867;DHT22;1441;48.886;8.728;2023-08-06T00:05:05;15.30;99.90
2867;DHT22;1441;48.886;8.728;2023-08-06T00:07:31;15.30;99.90
2867;DHT22;1441;48.886;8.728;2023-08-06T00:09:57;15.40;99.90
2867;DHT22;1441;48.886;8.728;2023-08-06T00:12:23;15.30;99.90
2867;DHT22;1441;48.886;8.728;2023-08-06T00:14:52;15.40;99.90
2867;DHT22;1441;48.886;8.728;2023-08-06T00:17:18;15.40;99.90
2867;DHT22;1441;48.886;8.728;2023-08-06T00:19:44;15.40;99.90
2867;DHT22;1441;48.886;8.728;2023-08-06T00:22:10;15.40;99.90
2867;DHT22;1441;48.886;8.728;2023-08-06T00:24:36;15.30;99.90
2867;DHT22;1441;48.886;8.728;2023-08-06T00:27:02;15.20;99.90
2867;DHT22;1441;48.886;8.728;2023-08-06T00:29:27;15.10;99.90
2867;DHT22;1441;48.886;8.728;2023-08-06T00:31:53;15.00;99.90
2867;DHT22;1441;48.886;8.728;2023-08-06T00:34:18;15.10;99.90
2867;DHT22;1441;48.886;8.728;2023-08-06T00:36:44;15.00;99.90
2867;DHT22;1441;48.886;8.728;2023-08-06T00:39:10;15.00;99.90
2867;DHT22;1441;48.886;8.728;2023-08-06T00:41:35;15.00;99.90
2867;DHT22;1441;48.886;8.728;2023-08-06T00:44:01;15.00;99.90
2867;DHT22;1441;48.886;8.728;2023-08-06T00:46:26;14.90;99.90
2867;DHT22;1441;48.886;8.728;2023-08-06T00:48:52;14.90;99.90
2867;DHT22;1441;48.886;8.728;2023-08-06T00:51:19;14.60;99.90
2867;DHT22;1441;48.886;8.728;2023-08-06T00:53:45;14.50;99.90
2867;DHT22;1441;48.886;8.728;2023-08-06T00:56:12;14.70;99.90
2867;DHT22;1441;48.886;8.728;2023-08-06T00:58:38;14.70;99.90
2867;DHT22;1441;48.886;8.728;2023-08-06T01:01:04;14.60;99.90
2867;DHT22;1441;48.886;8.728;2023-08-06T01:03:30;14.70;99.90
2867;DHT22;1441;48.886;8.728;2023-08-06T01:05:55;14.80;99.90
2867;DHT22;1441;48.886;8.728;2023-08-06T01:11:50;14.70;99.90
2867;DHT22;1441;48.886;8.728;2023-08-06T01:14:33;14.40;99.90
2867;DHT22;1441;48.886;8.728;2023-08-06T01:17:04;14.20;99.90
2867;DHT22;1441;48.886;8.728;2023-08-06T01:19:30;14.20;99.90
2867;DHT22;1441;48.886;8.728;2023-08-06T01:21:55;14.10;99.90
2867;DHT22;1441;48.886;8.728;2023-08-06T01:24:21;14.30;99.90
2867;DHT22;1441;48.886;8.728;2023-08-06T01:26:58;14.30;99.90
2867;DHT22;1441;48.886;8.728;2023-08-06T01:29:44;14.50;99.90
2867;DHT22;1441;48.886;8.728;2023-08-06T01:32:11;14.70;99.90
2867;DHT22;1441;48.886;8.728;2023-08-06T01:34:40;14.70;99.90
2867;DHT22;1441;48.886;8.728;2023-08-06T01:37:07;14.70;99.90
2867;DHT22;1441;48.886;8.728;2023-08-06T01:39:35;14.70;99.90
2867;DHT22;1441;48.886;8.728;2023-08-06T01:42:01;14.60;99.90
2867;DHT22;1441;48.886;8.728;2023-08-06T01:44:26;14.60;99.90
2867;DHT22;1441;48.886;8.728;2023-08-06T01:46:52;14.60;99.90
2867;DHT22;1441;48.886;8.728;2023-08-06T01:49:18;14.50;99.90
2867;DHT22;1441;48.886;8.728;2023-08-06T01:51:43;14.50;99.90
2867;DHT22;1441;48.886;8.728;2023-08-06T01:54:09;14.40;99.90
2867;DHT22;1441;48.886;8.728;2023-08-06T01:56:34;14.30;99.90
2867;DHT22;1441;48.886;8.728;2023-08-06T01:59:00;14.30;99.90
2867;DHT22;1441;48.886;8.728;2023-08-06T02:01:25;14.30;99.90
2867;DHT22;1441;48.886;8.728;2023-08-06T02:03:51;14.40;99.90
2867;DHT22;1441;48.886;8.728;2023-08-06T02:06:16;14.50;99.90
2867;DHT22;1441;48.886;8.728;2023-08-06T02:08:42;14.60;99.90
2867;DHT22;1441;48.886;8.728;2023-08-06T02:11:07;14.60;99.90
2867;DHT22;1441;48.886;8.728;2023-08-06T02:13:33;14.50;99.90
2867;DHT22;1441;48.886;8.728;2023-08-06T02:15:59;14.70;99.90
2867;DHT22;1441;48.886;8.728;2023-08-06T02:18:24;14.70;99.90
2867;DHT22;1441;48.886;8.728;2023-08-06T02:20:59;14.70;99.90
2867;DHT22;1441;48.886;8.728;2023-08-06T02:23:26;14.60;99.90
2867;DHT22;1441;48.886;8.728;2023-08-06T02:28:24;14.70;99.90
2867;DHT22;1441;48.886;8.728;2023-08-06T02:30:51;14.90;99.90
2867;DHT22;1441;48.886;8.728;2023-08-06T02:33:16;14.80;99.90
2867;DHT22;1441;48.886;8.728;2023-08-06T02:35:42;14.90;99.90
2867;DHT22;1441;48.886;8.728;2023-08-06T02:38:07;15.00;99.90
2867;DHT22;1441;48.886;8.728;2023-08-06T02:40:33;14.80;99.90
2867;DHT22;1441;48.886;8.728;2023-08-06T02:42:58;14.80;99.90
2867;DHT22;1441;48.886;8.728;2023-08-06T02:45:24;14.70;99.90
2867;DHT22;1441;48.886;8.728;2023-08-06T02:47:49;14.50;99.90
2867;DHT22;1441;48.886;8.728;2023-08-06T02:50:15;14.50;99.90
2867;DHT22;1441;48.886;8.728;2023-08-06T02:52:41;14.50;99.90
2867;DHT22;1441;48.886;8.728;2023-08-06T02:55:06;14.60;99.90
2867;DHT22;1441;48.886;8.728;2023-08-06T02:57:32;14.60;99.90
2867;DHT22;1441;48.886;8.728;2023-08-06T02:59:58;14.90;99.90
2867;DHT22;1441;48.886;8.728;2023-08-06T03:02:23;15.00;99.90
2867;DHT22;1441;48.886;8.728;2023-08-06T03:04:49;15.30;99.90
2867;DHT22;1441;48.886;8.728;2023-08-06T03:07:14;15.40;99.90
2867;DHT22;1441;48.886;8.728;2023-08-06T03:09:40;15.20;99.90
2867;DHT22;1441;48.886;8.728;2023-08-06T03:12:06;15.30;99.90
2867;DHT22;1441;48.886;8.728;2023-08-06T03:14:31;15.20;99.90
2867;DHT22;1441;48.886;8.728;2023-08-06T03:16:57;15.20;99.90
2867;DHT22;1441;48.886;8.728;2023-08-06T03:19:22;15.00;99.90
2867;DHT22;1441;48.886;8.728;2023-08-06T03:21:48;15.00;99.90
2867;DHT22;1441;48.886;8.728;2023-08-06T03:24:14;14.90;99.90
2867;DHT22;1441;48.886;8.728;2023-08-06T03:26:39;14.90;99.90
2867;DHT22;1441;48.886;8.728;2023-08-06T03:29:05;14.80;99.90
2867;DHT22;1441;48.886;8.728;2023-08-06T03:31:31;14.80;99.90
2867;DHT22;1441;48.886;8.728;2023-08-06T03:33:56;14.80;99.90
2867;DHT22;1441;48.886;8.728;2023-08-06T03:36:22;14.80;99.90
2867;DHT22;1441;48.886;8.728;2023-08-06T03:38:47;14.80;99.90
2867;DHT22;1441;48.886;8.728;2023-08-06T03:41:13;14.70;99.90
2867;DHT22;1441;48.886;8.728;2023-08-06T03:43:38;14.70;99.90
2867;DHT22;1441;48.886;8.728;2023-08-06T03:46:04;14.70;99.90
2867;DHT22;1441;48.886;8.728;2023-08-06T03:48:30;14.70;99.90
2867;DHT22;1441;48.886;8.728;2023-08-06T03:50:55;14.70;99.90
2867;DHT22;1441;48.886;8.728;2023-08-06T03:53:21;14.70;99.90
2867;DHT22;1441;48.886;8.728;2023-08-06T03:55:46;14.70;99.90
2867;DHT22;1441;48.886;8.728;2023-08-06T03:58:12;14.60;99.90
2867;DHT22;1441;48.886;8.728;2023-08-06T04:00:37;14.60;99.90
2867;DHT22;1441;48.886;8.728;2023-08-06T04:03:03;14.50;99.90
2867;DHT22;1441;48.886;8.728;2023-08-06T04:05:31;14.50;99.90
2867;DHT22;1441;48.886;8.728;2023-08-06T04:07:57;14.50;99.90
2867;DHT22;1441;48.886;8.728;2023-08-06T04:10:23;14.50;99.90
2867;DHT22;1441;48.886;8.728;2023-08-06T04:12:49;14.50;99.90
2867;DHT22;1441;48.886;8.728;2023-08-06T04:15:14;14.50;99.90
2867;DHT22;1441;48.886;8.728;2023-08-06T04:17:40;14.50;99.90
2867;DHT22;1441;48.886;8.728;2023-08-06T04:20:06;14.50;99.90
2867;DHT22;1441;48.886;8.728;2023-08-06T04:22:32;14.50;99.90
2867;DHT22;1441;48.886;8.728;2023-08-06T04:24:57;14.50;99.90
2867;DHT22;1441;48.886;8.728;2023-08-06T04:27:23;14.50;99.90
2867;DHT22;1441;48.886;8.728;2023-08-06T04:29:48;14.50;99.90
2867;DHT22;1441;48.886;8.728;2023-08-06T04:32:14;14.50;99.90
2867;DHT22;1441;48.886;8.728;2023-08-06T04:34:39;14.50;99.90
2867;DHT22;1441;48.886;8.728;2023-08-06T04:37:05;14.50;99.90
2867;DHT22;1441;48.886;8.728;2023-08-06T04:39:31;14.50;99.90
2867;DHT22;1441;48.886;8.728;2023-08-06T04:41:56;14.50;99.90
2867;DHT22;1441;48.886;8.728;2023-08-06T04:44:25;14.50;99.90
2867;DHT22;1441;48.886;8.728;2023-08-06T04:46:51;14.50;99.90
2867;DHT22;1441;48.886;8.728;2023-08-06T04:49:17;14.50;99.90
2867;DHT22;1441;48.886;8.728;2023-08-06T04:51:43;14.50;99.90
2867;DHT22;1441;48.886;8.728;2023-08-06T04:54:09;14.50;99.90
2867;DHT22;1441;48.886;8.728;2023-08-06T04:56:35;14.50;99.90
2867;DHT22;1441;48.886;8.728;2023-08-06T04:59:01;14.50;99.90
2867;DHT22;1441;48.886;8.728;2023-08-06T05:01:26;14.50;99.90
2867;DHT22;1441;48.886;8.728;2023-08-06T05:03:52;14.50;99.90
2867;DHT22;1441;48.886;8.728;2023-08-06T05:06:17;14.50;99.90
2867;DHT22;1441;48.886;8.728;2023-08-06T05:08:43;14.50;99.90
2867;DHT22;1441;48.886;8.728;2023-08-06T05:11:09;14.40;99.90
2867;DHT22;1441;48.886;8.728;2023-08-06T05:13:35;14.40;99.90
2867;DHT22;1441;48.886;8.728;2023-08-06T05:16:00;14.50;99.90
2867;DHT22;1441;48.886;8.728;2023-08-06T05:18:26;14.50;99.90
2867;DHT22;1441;48.886;8.728;2023-08-06T05:20:51;14.50;99.90
2867;DHT22;1441;48.886;8.728;2023-08-06T05:23:17;14.50;99.90
2867;DHT22;1441;48.886;8.728;2023-08-06T05:25:42;14.60;99.90
2867;DHT22;1441;48.886;8.728;2023-08-06T05:28:08;14.60;99.90
2867;DHT22;1441;48.886;8.728;2023-08-06T05:30:34;14.50;99.90
2867;DHT22;1441;48.886;8.728;2023-08-06T05:33:02;14.60;99.90
2867;DHT22;1441;48.886;8.728;2023-08-06T05:35:28;14.60;99.90
2867;DHT22;1441;48.886;8.728;2023-08-06T05:37:53;14.60;99.90
2867;DHT22;1441;48.886;8.728;2023-08-06T05:40:19;14.70;99.90
2867;DHT22;1441;48.886;8.728;2023-08-06T05:42:44;14.80;99.90
2867;DHT22;1441;48.886;8.728;2023-08-06T05:45:10;14.60;99.90
2867;DHT22;1441;48.886;8.728;2023-08-06T05:47:36;14.60;99.90
2867;DHT22;1441;48.886;8.728;2023-08-06T05:50:01;14.60;99.90
2867;DHT22;1441;48.886;8.728;2023-08-06T05:52:27;14.50;99.90
2867;DHT22;1441;48.886;8.728;2023-08-06T05:54:52;14.60;99.90
2867;DHT22;1441;48.886;8.728;2023-08-06T05:57:18;14.60;99.90
2867;DHT22;1441;48.886;8.728;2023-08-06T05:59:44;14.60;99.90
2867;DHT22;1441;48.886;8.728;2023-08-06T06:02:09;14.50;99.90
2867;DHT22;1441;48.886;8.728;2023-08-06T06:04:35;14.60;99.90
2867;DHT22;1441;48.886;8.728;2023-08-06T06:07:01;14.60;99.90
2867;DHT22;1441;48.886;8.728;2023-08-06T06:09:26;14.70;99.90
2867;DHT22;1441;48.886;8.728;2023-08-06T06:11:52;14.70;99.90
2867;DHT22;1441;48.886;8.728;2023-08-06T06:14:18;14.60;99.90
2867;DHT22;1441;48.886;8.728;2023-08-06T06:16:44;14.50;99.90
2867;DHT22;1441;48.886;8.728;2023-08-06T06:19:10;14.40;99.90
2867;DHT22;1441;48.886;8.728;2023-08-06T06:21:36;14.50;99.90
2867;DHT22;1441;48.886;8.728;2023-08-06T06:24:03;14.50;99.90
2867;DHT22;1441;48.886;8.728;2023-08-06T06:26:29;14.60;99.90
2867;DHT22;1441;48.886;8.728;2023-08-06T06:28:55;14.70;99.90
2867;DHT22;1441;48.886;8.728;2023-08-06T06:31:21;14.70;99.90
2867;DHT22;1441;48.886;8.728;2023-08-06T06:33:46;14.70;99.90
2867;DHT22;1441;48.886;8.728;2023-08-06T06:36:12;14.80;99.90
2867;DHT22;1441;48.886;8.728;2023-08-06T06:38:38;14.80;99.90
2867;DHT22;1441;48.886;8.728;2023-08-06T06:41:04;14.90;99.90
2867;DHT22;1441;48.886;8.728;2023-08-06T06:43:29;14.90;99.90
2867;DHT22;1441;48.886;8.728;2023-08-06T06:46:01;14.80;99.90
2867;DHT22;1441;48.886;8.728;2023-08-06T06:48:28;14.70;99.90
2867;DHT22;1441;48.886;8.728;2023-08-06T06:50:54;14.80;99.90
2867;DHT22;1441;48.886;8.728;2023-08-06T06:53:20;14.80;99.90
2867;DHT22;1441;48.886;8.728;2023-08-06T06:55:48;14.70;99.90
2867;DHT22;1441;48.886;8.728;2023-08-06T06:58:15;14.80;99.90
2867;DHT22;1441;48.886;8.728;2023-08-06T07:00:42;14.90;99.90
2867;DHT22;1441;48.886;8.728;2023-08-06T07:03:07;14.90;99.90
2867;DHT22;1441;48.886;8.728;2023-08-06T07:05:33;15.00;99.90
2867;DHT22;1441;48.886;8.728;2023-08-06T07:07:58;14.90;99.90
2867;DHT22;1441;48.886;8.728;2023-08-06T07:10:25;14.80;99.90
2867;DHT22;1441;48.886;8.728;2023-08-06T07:12:51;14.90;99.90
2867;DHT22;1441;48.886;8.728;2023-08-06T07:15:16;15.00;99.90
2867;DHT22;1441;48.886;8.728;2023-08-06T07:17:43;14.90;99.90
2867;DHT22;1441;48.886;8.728;2023-08-06T07:20:08;14.90;99.90
2867;DHT22;1441;48.886;8.728;2023-08-06T07:22:34;14.90;99.90
2867;DHT22;1441;48.886;8.728;2023-08-06T07:25:01;15.00;99.90
2867;DHT22;1441;48.886;8.728;2023-08-06T07:27:26;15.00;99.90
2867;DHT22;1441;48.886;8.728;2023-08-06T07:29:52;15.00;99.90
2867;DHT22;1441;48.886;8.728;2023-08-06T07:32:17;15.00;99.90
2867;DHT22;1441;48.886;8.728;2023-08-06T07:34:43;14.90;99.90
2867;DHT22;1441;48.886;8.728;2023-08-06T07:37:09;14.90;99.90
2867;DHT22;1441;48.886;8.728;2023-08-06T07:39:34;14.90;99.90
2867;DHT22;1441;48.886;8.728;2023-08-06T07:42:00;14.90;99.90
2867;DHT22;1441;48.886;8.728;2023-08-06T07:44:27;14.90;99.90
2867;DHT22;1441;48.886;8.728;2023-08-06T07:46:53;14.90;99.90
2867;DHT22;1441;48.886;8.728;2023-08-06T07:49:18;15.00;99.90
2867;DHT22;1441;48.886;8.728;2023-08-06T07:51:44;15.10;99.90
2867;DHT22;1441;48.886;8.728;2023-08-06T07:54:10;15.20;99.90
2867;DHT22;1441;48.886;8.728;2023-08-06T07:56:35;15.30;99.90
2867;DHT22;1441;48.886;8.728;2023-08-06T07:59:02;15.20;99.90
2867;DHT22;1441;48.886;8.728;2023-08-06T08:01:27;15.30;99.90
2867;DHT22;1441;48.886;8.728;2023-08-06T08:03:53;15.30;99.90
2867;DHT22;1441;48.886;8.728;2023-08-06T08:06:18;15.30;99.90
2867;DHT22;1441;48.886;8.728;2023-08-06T08:08:44;15.30;99.90
2867;DHT22;1441;48.886;8.728;2023-08-06T08:11:10;15.30;99.90
2867;DHT22;1441;48.886;8.728;2023-08-06T08:13:36;15.40;99.90
2867;DHT22;1441;48.886;8.728;2023-08-06T08:16:01;15.70;99.90
2867;DHT22;1441;48.886;8.728;2023-08-06T08:18:27;16.10;99.90
2867;DHT22;1441;48.886;8.728;2023-08-06T08:20:53;16.40;99.00
2867;DHT22;1441;48.886;8.728;2023-08-06T08:23:19;16.40;99.40
2867;DHT22;1441;48.886;8.728;2023-08-06T08:25:44;16.30;99.90
2867;DHT22;1441;48.886;8.728;2023-08-06T08:28:10;16.20;99.90
2867;DHT22;1441;48.886;8.728;2023-08-06T08:30:36;16.00;99.90
2867;DHT22;1441;48.886;8.728;2023-08-06T08:33:01;15.90;99.90
2867;DHT22;1441;48.886;8.728;2023-08-06T08:35:27;15.80;99.90
2867;DHT22;1441;48.886;8.728;2023-08-06T08:37:52;15.60;99.90
2867;DHT22;1441;48.886;8.728;2023-08-06T08:40:20;15.60;99.90
2867;DHT22;1441;48.886;8.728;2023-08-06T08:42:47;15.60;99.90
2867;DHT22;1441;48.886;8.728;2023-08-06T08:45:14;15.60;99.90
2867;DHT22;1441;48.886;8.728;2023-08-06T08:47:43;15.90;99.90
2867;DHT22;1441;48.886;8.728;2023-08-06T08:50:10;16.20;99.90
2867;DHT22;1441;48.886;8.728;2023-08-06T08:52:39;16.40;99.90
2867;DHT22;1441;48.886;8.728;2023-08-06T08:55:12;16.30;99.90
2867;DHT22;1441;48.886;8.728;2023-08-06T08:57:39;16.20;99.90
2867;DHT22;1441;48.886;8.728;2023-08-06T09:00:05;16.10;99.90
2867;DHT22;1441;48.886;8.728;2023-08-06T09:02:33;16.10;99.90
2867;DHT22;1441;48.886;8.728;2023-08-06T09:05:00;16.00;99.90
2867;DHT22;1441;48.886;8.728;2023-08-06T09:07:31;16.20;99.90
2867;DHT22;1441;48.886;8.728;2023-08-06T09:09:59;16.60;99.90
2867;DHT22;1441;48.886;8.728;2023-08-06T09:12:27;16.60;99.90
2867;DHT22;1441;48.886;8.728;2023-08-06T09:14:52;16.40;99.90
2867;DHT22;1441;48.886;8.728;2023-08-06T09:17:19;16.30;99.90
2867;DHT22;1441;48.886;8.728;2023-08-06T09:19:46;16.00;99.90
2867;DHT22;1441;48.886;8.728;2023-08-06T09:22:13;15.80;99.90
2867;DHT22;1441;48.886;8.728;2023-08-06T09:24:41;15.70;99.90
2867;DHT22;1441;48.886;8.728;2023-08-06T09:27:11;15.80;99.90
2867;DHT22;1441;48.886;8.728;2023-08-06T09:29:43;15.70;99.90
2867;DHT22;1441;48.886;8.728;2023-08-06T09:32:11;15.70;99.90
2867;DHT22;1441;48.886;8.728;2023-08-06T09:34:39;15.60;99.90
2867;DHT22;1441;48.886;8.728;2023-08-06T09:37:06;15.40;99.90
2867;DHT22;1441;48.886;8.728;2023-08-06T09:39:33;15.30;99.90
2867;DHT22;1441;48.886;8.728;2023-08-06T09:42:01;15.30;99.90
2867;DHT22;1441;48.886;8.728;2023-08-06T09:44:28;15.30;99.90
2867;DHT22;1441;48.886;8.728;2023-08-06T09:46:55;15.40;99.90
2867;DHT22;1441;48.886;8.728;2023-08-06T09:49:25;15.30;99.90
2867;DHT22;1441;48.886;8.728;2023-08-06T09:51:52;15.40;99.90
2867;DHT22;1441;48.886;8.728;2023-08-06T09:54:22;15.40;99.90
2867;DHT22;1441;48.886;8.728;2023-08-06T09:56:48;15.80;99.90
2867;DHT22;1441;48.886;8.728;2023-08-06T09:59:14;16.20;99.90
2867;DHT22;1441;48.886;8.728;2023-08-06T10:01:41;16.40;99.90
2867;DHT22;1441;48.886;8.728;2023-08-06T10:04:07;16.30;99.90
2867;DHT22;1441;48.886;8.728;2023-08-06T10:06:41;16.30;99.90
2867;DHT22;1441;48.886;8.728;2023-08-06T10:09:08;16.50;99.90
2867;DHT22;1441;48.886;8.728;2023-08-06T10:11:36;16.50;99.90
2867;DHT22;1441;48.886;8.728;2023-08-06T10:14:22;16.50;99.90
2867;DHT22;1441;48.886;8.728;2023-08-06T10:16:50;16.50;99.90
2867;DHT22;1441;48.886;8.728;2023-08-06T10:19:16;16.40;99.90
2867;DHT22;1441;48.886;8.728;2023-08-06T10:22:12;16.30;99.90
2867;DHT22;1441;48.886;8.728;2023-08-06T10:27:11;16.10;99.90
2867;DHT22;1441;48.886;8.728;2023-08-06T10:29:37;15.90;99.90
2867;DHT22;1441;48.886;8.728;2023-08-06T10:32:03;15.60;99.90
2867;DHT22;1441;48.886;8.728;2023-08-06T10:34:56;15.40;99.90
2867;DHT22;1441;48.886;8.728;2023-08-06T10:37:22;15.20;99.90
2867;DHT22;1441;48.886;8.728;2023-08-06T10:39:51;15.10;99.90
2867;DHT22;1441;48.886;8.728;2023-08-06T10:42:30;15.10;99.90
2867;DHT22;1441;48.886;8.728;2023-08-06T10:45:18;15.00;99.90
2867;DHT22;1441;48.886;8.728;2023-08-06T10:47:44;15.00;99.90
2867;DHT22;1441;48.886;8.728;2023-08-06T10:50:15;15.00;99.90
2867;DHT22;1441;48.886;8.728;2023-08-06T10:52:43;15.10;99.90
2867;DHT22;1441;48.886;8.728;2023-08-06T10:55:09;15.20;99.90
2867;DHT22;1441;48.886;8.728;2023-08-06T10:57:35;15.20;99.90
2867;DHT22;1441;48.886;8.728;2023-08-06T11:00:00;15.10;99.90
2867;DHT22;1441;48.886;8.728;2023-08-06T11:02:26;15.10;99.90
2867;DHT22;1441;48.886;8.728;2023-08-06T11:04:51;15.10;99.90
2867;DHT22;1441;48.886;8.728;2023-08-06T11:07:17;15.10;99.90
2867;DHT22;1441;48.886;8.728;2023-08-06T11:09:43;15.20;99.90
2867;DHT22;1441;48.886;8.728;2023-08-06T11:12:11;15.10;99.90
2867;DHT22;1441;48.886;8.728;2023-08-06T11:14:37;15.00;99.90
2867;DHT22;1441;48.886;8.728;2023-08-06T11:17:05;14.80;99.90
2867;DHT22;1441;48.886;8.728;2023-08-06T11:19:30;14.70;99.90
2867;DHT22;1441;48.886;8.728;2023-08-06T11:21:56;14.60;99.90
2867;DHT22;1441;48.886;8.728;2023-08-06T11:24:24;14.50;99.90
2867;DHT22;1441;48.886;8.728;2023-08-06T11:26:49;14.50;99.90
2867;DHT22;1441;48.886;8.728;2023-08-06T11:29:15;14.30;99.90
2867;DHT22;1441;48.886;8.728;2023-08-06T11:31:41;14.20;99.90
2867;DHT22;1441;48.886;8.728;2023-08-06T11:34:07;14.10;99.90
2867;DHT22;1441;48.886;8.728;2023-08-06T11:36:34;14.10;99.90
2867;DHT22;1441;48.886;8.728;2023-08-06T11:39:00;14.10;99.90
2867;DHT22;1441;48.886;8.728;2023-08-06T11:41:31;14.10;99.90
2867;DHT22;1441;48.886;8.728;2023-08-06T11:43:56;14.10;99.90
2867;DHT22;1441;48.886;8.728;2023-08-06T11:46:22;14.20;99.90
2867;DHT22;1441;48.886;8.728;2023-08-06T11:48:55;14.10;99.90
2867;DHT22;1441;48.886;8.728;2023-08-06T11:51:25;14.00;99.90
2867;DHT22;1441;48.886;8.728;2023-08-06T11:53:59;14.00;99.90
2867;DHT22;1441;48.886;8.728;2023-08-06T11:56:25;14.00;99.90
2867;DHT22;1441;48.886;8.728;2023-08-06T11:58:54;14.10;99.90
2867;DHT22;1441;48.886;8.728;2023-08-06T12:01:20;14.20;99.90
2867;DHT22;1441;48.886;8.728;2023-08-06T12:03:46;14.20;99.90
2867;DHT22;1441;48.886;8.728;2023-08-06T12:06:11;14.20;99.90
2867;DHT22;1441;48.886;8.728;2023-08-06T12:08:37;14.10;99.90
2867;DHT22;1441;48.886;8.728;2023-08-06T12:11:03;14.10;99.90
2867;DHT22;1441;48.886;8.728;2023-08-06T12:13:29;14.20;99.90
2867;DHT22;1441;48.886;8.728;2023-08-06T12:15:54;14.20;99.90
2867;DHT22;1441;48.886;8.728;2023-08-06T12:18:22;14.30;99.90
2867;DHT22;1441;48.886;8.728;2023-08-06T12:20:48;14.30;99.90
2867;DHT22;1441;48.886;8.728;2023-08-06T12:23:14;14.30;99.90
2867;DHT22;1441;48.886;8.728;2023-08-06T12:25:41;14.40;99.90
2867;DHT22;1441;48.886;8.728;2023-08-06T12:28:07;14.30;99.90
2867;DHT22;1441;48.886;8.728;2023-08-06T12:30:33;14.50;99.90
2867;DHT22;1441;48.886;8.728;2023-08-06T12:32:59;14.40;99.90
2867;DHT22;1441;48.886;8.728;2023-08-06T12:35:25;14.40;99.90
2867;DHT22;1441;48.886;8.728;2023-08-06T12:37:51;14.50;99.90
2867;DHT22;1441;48.886;8.728;2023-08-06T12:40:20;14.70;99.90
2867;DHT22;1441;48.886;8.728;2023-08-06T12:42:45;14.70;99.90
2867;DHT22;1441;48.886;8.728;2023-08-06T12:45:11;14.80;99.90
2867;DHT22;1441;48.886;8.728;2023-08-06T12:47:37;14.80;99.90
2867;DHT22;1441;48.886;8.728;2023-08-06T12:50:03;14.80;99.90
2867;DHT22;1441;48.886;8.728;2023-08-06T12:52:28;14.80;99.90
2867;DHT22;1441;48.886;8.728;2023-08-06T12:54:54;15.00;99.90
2867;DHT22;1441;48.886;8.728;2023-08-06T12:57:19;15.00;99.90
2867;DHT22;1441;48.886;8.728;2023-08-06T12:59:45;15.00;99.90
2867;DHT22;1441;48.886;8.728;2023-08-06T13:02:10;15.00;99.90
2867;DHT22;1441;48.886;8.728;2023-08-06T13:04:36;15.00;99.90
2867;DHT22;1441;48.886;8.728;2023-08-06T13:07:01;14.90;99.90
2867;DHT22;1441;48.886;8.728;2023-08-06T13:09:27;14.90;99.90
2867;DHT22;1441;48.886;8.728;2023-08-06T13:11:53;15.00;99.90
2867;DHT22;1441;48.886;8.728;2023-08-06T13:14:18;14.90;99.90
2867;DHT22;1441;48.886;8.728;2023-08-06T13:16:44;14.90;99.90
2867;DHT22;1441;48.886;8.728;2023-08-06T13:19:11;14.90;99.90
2867;DHT22;1441;48.886;8.728;2023-08-06T13:24:07;14.70;99.90
2867;DHT22;1441;48.886;8.728;2023-08-06T13:26:33;14.60;99.90
2867;DHT22;1441;48.886;8.728;2023-08-06T13:28:59;14.60;99.90
2867;DHT22;1441;48.886;8.728;2023-08-06T13:31:26;14.70;99.90
2867;DHT22;1441;48.886;8.728;2023-08-06T13:33:52;14.90;99.90
2867;DHT22;1441;48.886;8.728;2023-08-06T13:36:20;15.00;99.90
2867;DHT22;1441;48.886;8.728;2023-08-06T13:38:46;15.10;99.90
2867;DHT22;1441;48.886;8.728;2023-08-06T13:41:12;15.00;99.90
2867;DHT22;1441;48.886;8.728;2023-08-06T13:43:38;15.00;99.90
2867;DHT22;1441;48.886;8.728;2023-08-06T13:46:03;14.80;99.90
2867;DHT22;1441;48.886;8.728;2023-08-06T13:48:29;14.60;99.90
2867;DHT22;1441;48.886;8.728;2023-08-06T13:50:55;14.60;99.90
2867;DHT22;1441;48.886;8.728;2023-08-06T13:53:20;14.60;99.90
2867;DHT22;1441;48.886;8.728;2023-08-06T13:55:46;14.60;99.90
2867;DHT22;1441;48.886;8.728;2023-08-06T13:58:11;14.60;99.90
2867;DHT22;1441;48.886;8.728;2023-08-06T14:00:37;14.80;99.90
2867;DHT22;1441;48.886;8.728;2023-08-06T14:03:03;15.10;99.90
2867;DHT22;1441;48.886;8.728;2023-08-06T14:05:28;15.40;99.90
2867;DHT22;1441;48.886;8.728;2023-08-06T14:07:54;15.70;99.90
2867;DHT22;1441;48.886;8.728;2023-08-06T14:10:19;15.90;99.90
2867;DHT22;1441;48.886;8.728;2023-08-06T14:12:45;15.90;99.90
2867;DHT22;1441;48.886;8.728;2023-08-06T14:15:11;15.90;99.90
2867;DHT22;1441;48.886;8.728;2023-08-06T14:17:37;15.90;99.90
2867;DHT22;1441;48.886;8.728;2023-08-06T14:20:03;15.90;99.90
2867;DHT22;1441;48.886;8.728;2023-08-06T14:22:30;15.80;98.70
2867;DHT22;1441;48.886;8.728;2023-08-06T14:24:57;15.80;98.90
2867;DHT22;1441;48.886;8.728;2023-08-06T14:27:23;15.70;99.30
2867;DHT22;1441;48.886;8.728;2023-08-06T14:29:48;15.60;99.20
2867;DHT22;1441;48.886;8.728;2023-08-06T14:32:14;15.50;99.30
2867;DHT22;1441;48.886;8.728;2023-08-06T14:34:43;15.50;99.00
2867;DHT22;1441;48.886;8.728;2023-08-06T14:37:09;15.50;99.00
2867;DHT22;1441;48.886;8.728;2023-08-06T14:39:34;15.40;99.90
2867;DHT22;1441;48.886;8.728;2023-08-06T14:42:00;15.40;99.90
2867;DHT22;1441;48.886;8.728;2023-08-06T14:44:25;15.60;99.90
2867;DHT22;1441;48.886;8.728;2023-08-06T14:46:51;15.80;99.90
2867;DHT22;1441;48.886;8.728;2023-08-06T14:49:16;15.90;98.70
2867;DHT22;1441;48.886;8.728;2023-08-06T14:51:42;16.10;98.30
2867;DHT22;1441;48.886;8.728;2023-08-06T14:54:07;16.40;97.10
2867;DHT22;1441;48.886;8.728;2023-08-06T14:56:33;16.60;96.20
2867;DHT22;1441;48.886;8.728;2023-08-06T14:58:59;16.50;94.70
2867;DHT22;1441;48.886;8.728;2023-08-06T15:01:24;16.40;94.90
2867;DHT22;1441;48.886;8.728;2023-08-06T15:03:50;16.30;95.00
2867;DHT22;1441;48.886;8.728;2023-08-06T15:06:15;16.40;94.50
2867;DHT22;1441;48.886;8.728;2023-08-06T15:08:41;16.30;95.30
2867;DHT22;1441;48.886;8.728;2023-08-06T15:11:09;16.40;94.80
2867;DHT22;1441;48.886;8.728;2023-08-06T15:13:34;16.40;94.50
2867;DHT22;1441;48.886;8.728;2023-08-06T15:16:00;16.40;95.90
2867;DHT22;1441;48.886;8.728;2023-08-06T15:18:25;16.20;96.10
2867;DHT22;1441;48.886;8.728;2023-08-06T15:20:51;16.00;97.10
2867;DHT22;1441;48.886;8.728;2023-08-06T15:23:17;16.00;98.30
2867;DHT22;1441;48.886;8.728;2023-08-06T15:25:42;15.90;98.60
2867;DHT22;1441;48.886;8.728;2023-08-06T15:28:08;15.90;98.70
2867;DHT22;1441;48.886;8.728;2023-08-06T15:30:33;15.80;99.40
2867;DHT22;1441;48.886;8.728;2023-08-06T15:32:59;15.90;98.40
2867;DHT22;1441;48.886;8.728;2023-08-06T15:35:24;15.80;98.50
2867;DHT22;1441;48.886;8.728;2023-08-06T15:37:50;15.70;98.90
2867;DHT22;1441;48.886;8.728;2023-08-06T15:40:16;15.60;98.50
2867;DHT22;1441;48.886;8.728;2023-08-06T15:42:41;15.50;99.40
2867;DHT22;1441;48.886;8.728;2023-08-06T15:45:07;15.30;99.90
2867;DHT22;1441;48.886;8.728;2023-08-06T15:47:33;15.10;99.90
2867;DHT22;1441;48.886;8.728;2023-08-06T15:50:05;15.00;99.90
2867;DHT22;1441;48.886;8.728;2023-08-06T15:52:32;15.10;99.90
2867;DHT22;1441;48.886;8.728;2023-08-06T15:54:57;15.00;99.90
2867;DHT22;1441;48.886;8.728;2023-08-06T15:57:28;15.10;99.90
2867;DHT22;1441;48.886;8.728;2023-08-06T15:59:54;15.20;99.90
2867;DHT22;1441;48.886;8.728;2023-08-06T16:02:19;15.30;99.90
2867;DHT22;1441;48.886;8.728;2023-08-06T16:04:45;15.20;99.70
2867;DHT22;1441;48.886;8.728;2023-08-06T16:07:10;15.20;99.90